createdAt,value
2022-10-22T13:34:37.827Z,69.17
2022-10-22T13:39:59.073Z,69.37
2022-10-22T13:45:20.969Z,69.58
2022-10-22T13:50:42.719Z,69.51
2022-10-22T13:56:04.020Z,70.33
2022-10-22T14:01:27.746Z,70.36
2022-10-22T14:06:49.250Z,69.91
2022-10-22T14:12:16.959Z,70.22
2022-10-22T14:17:39.288Z,70.50
2022-10-22T14:23:13.413Z,70.66
2022-10-22T14:28:41.277Z,71.15
2022-10-22T14:34:11.094Z,71.35
2022-10-22T14:39:32.459Z,71.17
2022-10-22T14:44:54.004Z,70.94
2022-10-22T14:50:15.820Z,70.01
2022-10-22T14:55:37.264Z,69.28
2022-10-22T15:00:58.655Z,69.52
2022-10-22T15:06:20.130Z,68.76
2022-10-22T15:11:42.837Z,68.19
2022-10-22T15:17:04.299Z,68.50
2022-10-22T15:22:25.525Z,67.44
2022-10-22T15:27:50.344Z,67.41
2022-10-22T15:33:13.142Z,67.66
2022-10-22T15:38:34.335Z,67.62
2022-10-22T15:43:55.496Z,68.23
2022-10-22T15:49:17.619Z,68.52
2022-10-22T15:54:41.141Z,68.51
2022-10-22T16:00:04.416Z,69.19
2022-10-22T16:05:33.689Z,69.31
2022-10-22T16:10:55.168Z,68.99
2022-10-22T16:16:16.675Z,69.48
2022-10-22T16:21:38.350Z,67.60
2022-10-22T16:27:00.370Z,68.81
2022-10-22T16:32:21.730Z,69.09
2022-10-22T16:37:43.695Z,68.43
2022-10-22T16:43:06.065Z,68.94
2022-10-22T16:48:27.316Z,68.80
2022-10-22T16:53:49.206Z,68.67
2022-10-22T16:59:10.494Z,69.33
2022-10-22T17:04:32.154Z,68.17
2022-10-22T17:09:53.449Z,67.84
2022-10-22T17:15:15.149Z,67.00
2022-10-22T17:20:36.445Z,67.36
2022-10-22T17:26:09.018Z,66.75
2022-10-22T17:31:33.270Z,67.56
2022-10-22T17:36:55.767Z,66.89
2022-10-22T17:42:17.331Z,66.46
2022-10-22T17:47:38.959Z,66.40
2022-10-22T17:53:00.547Z,66.28
2022-10-22T17:58:22.059Z,66.41
2022-10-22T18:03:43.703Z,66.31
2022-10-22T18:09:06.911Z,66.00
2022-10-22T18:14:28.246Z,66.11
2022-10-22T18:19:49.718Z,66.25
2022-10-22T18:25:12.006Z,66.07
2022-10-22T18:30:34.948Z,64.87
2022-10-22T18:35:57.053Z,65.37
2022-10-22T18:41:19.383Z,65.45
2022-10-22T18:46:40.704Z,65.22
2022-10-22T18:52:01.816Z,65.03
2022-10-22T18:57:23.259Z,65.34
2022-10-22T19:02:44.863Z,65.31
2022-10-22T19:08:06.383Z,65.27
2022-10-22T19:13:28.626Z,66.09
2022-10-22T19:18:59.562Z,66.45
2022-10-22T19:24:21.049Z,66.91
2022-10-22T19:29:45.354Z,65.87
2022-10-22T19:35:06.903Z,66.26
2022-10-22T19:40:28.660Z,66.37
2022-10-22T19:45:50.183Z,66.22
2022-10-22T19:51:17.957Z,65.89
2022-10-22T19:56:39.478Z,65.96
2022-10-22T20:02:01.185Z,66.56
2022-10-22T20:07:22.722Z,67.25
2022-10-22T20:12:43.931Z,67.76
2022-10-22T20:18:05.569Z,67.29
2022-10-22T20:23:27.027Z,68.02
2022-10-22T20:28:48.504Z,68.50
2022-10-22T20:34:10.144Z,69.07
2022-10-22T20:39:31.826Z,68.86
2022-10-22T20:44:53.296Z,68.84
2022-10-22T20:50:14.804Z,68.86
2022-10-22T20:55:36.555Z,69.20
2022-10-22T21:01:01.101Z,69.54
2022-10-22T21:06:23.457Z,68.93
2022-10-22T21:11:45.701Z,69.67
2022-10-22T21:17:08.344Z,69.60
2022-10-22T21:22:29.951Z,69.11
2022-10-22T21:27:51.467Z,68.91
2022-10-22T21:33:13.151Z,68.65
2022-10-22T21:38:35.328Z,68.55
2022-10-22T21:43:56.854Z,68.49
2022-10-22T21:49:18.224Z,67.61
2022-10-22T21:54:39.990Z,67.69
2022-10-22T22:00:01.335Z,67.83
2022-10-22T22:05:23.042Z,67.95
2022-10-22T22:10:44.281Z,67.72
2022-10-22T22:16:08.996Z,68.28
2022-10-22T22:21:30.936Z,68.58
2022-10-22T22:26:52.505Z,68.78
2022-10-22T22:32:14.588Z,69.03
2022-10-22T22:37:35.774Z,68.80
2022-10-22T22:42:57.327Z,69.43
2022-10-22T22:48:18.743Z,69.57
2022-10-22T22:53:40.161Z,70.04
2022-10-22T22:59:01.706Z,69.71
2022-10-22T23:04:23.938Z,70.11
2022-10-22T23:09:45.525Z,70.08
2022-10-22T23:15:07.465Z,69.49
2022-10-22T23:20:29.184Z,69.87
2022-10-22T23:25:50.626Z,70.39
2022-10-22T23:31:17.904Z,70.69
2022-10-22T23:36:39.582Z,71.35
2022-10-22T23:42:01.301Z,72.32
2022-10-22T23:47:22.948Z,72.89
2022-10-22T23:52:44.768Z,73.17
2022-10-22T23:58:06.761Z,73.04
